createdAt,value
2017-12-17T00:00:32.226Z,99180.11
2017-12-17T00:03:00.482Z,99172.22
2017-12-17T00:05:28.756Z,99164.04
2017-12-17T00:07:57.058Z,99176.50
2017-12-17T00:10:25.352Z,99175.92
2017-12-17T00:12:53.643Z,99170.96
2017-12-17T00:15:21.882Z,99174.43
2017-12-17T00:17:50.183Z,99177.29
2017-12-17T00:20:18.431Z,99181.23
2017-12-17T00:22:46.712Z,99177.74
2017-12-17T00:25:14.968Z,99180.36
2017-12-17T00:27:43.263Z,99177.09
2017-12-17T00:30:11.527Z,99188.86
2017-12-17T00:32:39.837Z,99198.27
2017-12-17T00:35:08.089Z,99196.38
2017-12-17T00:37:36.367Z,99203.90
2017-12-17T00:40:05.391Z,99199.52
2017-12-17T00:42:33.690Z,99205.95
2017-12-17T00:45:01.948Z,99210.84
2017-12-17T00:47:30.247Z,99221.41
2017-12-17T00:49:58.488Z,99225.92
2017-12-17T00:52:26.758Z,99237.41
2017-12-17T00:54:55.044Z,99220.59
2017-12-17T00:57:23.315Z,99227.84
2017-12-17T00:59:51.694Z,99227.94
2017-12-17T01:02:19.916Z,99231.46
2017-12-17T01:04:48.223Z,99226.58
2017-12-17T01:07:16.471Z,99233.79
2017-12-17T01:09:44.774Z,99233.19
2017-12-17T01:12:13.019Z,99236.92
2017-12-17T01:14:41.298Z,99235.75
2017-12-17T01:17:09.541Z,99237.05
2017-12-17T01:19:37.819Z,99241.92
2017-12-17T01:22:06.095Z,99239.09
2017-12-17T01:24:34.356Z,99246.88
2017-12-17T01:27:02.628Z,99240.07
2017-12-17T01:29:30.884Z,99239.91
2017-12-17T01:31:59.160Z,99245.09
2017-12-17T01:34:27.416Z,99248.79
2017-12-17T01:36:55.730Z,99255.64
2017-12-17T01:39:23.956Z,99249.61
2017-12-17T01:41:53.094Z,99251.41
2017-12-17T01:44:21.358Z,99255.84
2017-12-17T01:46:49.654Z,99255.19
2017-12-17T01:49:17.935Z,99255.15
2017-12-17T01:51:46.206Z,99255.89
2017-12-17T01:54:14.471Z,99257.56
2017-12-17T01:56:42.741Z,99257.03
2017-12-17T01:59:11.020Z,99262.55
2017-12-17T02:01:39.275Z,99250.26
2017-12-17T02:04:07.574Z,99269.11
2017-12-17T02:06:35.821Z,99262.15
2017-12-17T02:09:04.840Z,99258.66
2017-12-17T02:11:33.096Z,99266.34
2017-12-17T02:14:01.574Z,99265.95
2017-12-17T02:16:29.826Z,99268.72
2017-12-17T02:18:58.166Z,99270.98
2017-12-17T02:21:26.427Z,99271.80
2017-12-17T02:23:54.674Z,99267.30
2017-12-17T02:26:22.980Z,99282.84
2017-12-17T02:28:51.236Z,99282.86
2017-12-17T02:31:19.523Z,99285.95
2017-12-17T02:33:47.774Z,99288.84
2017-12-17T02:36:16.046Z,99292.08
2017-12-17T02:38:44.304Z,99292.03
2017-12-17T02:41:12.653Z,99292.86
2017-12-17T02:43:40.916Z,99301.93
2017-12-17T02:46:09.188Z,99302.78
2017-12-17T02:48:37.467Z,99303.03
2017-12-17T02:51:05.731Z,99301.00
2017-12-17T02:53:34.036Z,99304.38
2017-12-17T02:56:02.275Z,99300.15
2017-12-17T02:58:30.573Z,99303.50
2017-12-17T03:00:58.851Z,99306.86
2017-12-17T03:03:27.382Z,99303.38
2017-12-17T03:05:55.667Z,99311.50
2017-12-17T03:08:23.933Z,99305.13
2017-12-17T03:10:52.207Z,99315.95
2017-12-17T03:13:20.451Z,99302.20
2017-12-17T03:15:48.751Z,99312.95
2017-12-17T03:18:17.120Z,99312.55
2017-12-17T03:20:45.502Z,99309.42
2017-12-17T03:23:13.714Z,99314.66
2017-12-17T03:25:42.195Z,99316.73
2017-12-17T03:28:10.462Z,99319.58
2017-12-17T03:30:38.764Z,99316.17
2017-12-17T03:33:07.032Z,99317.08
2017-12-17T03:35:35.287Z,99303.12
2017-12-17T03:38:04.299Z,99311.81
2017-12-17T03:40:32.554Z,99312.50
2017-12-17T03:43:00.836Z,99316.31
2017-12-17T03:45:29.107Z,99319.03
2017-12-17T03:47:57.399Z,99315.87
2017-12-17T03:50:25.703Z,99317.87
2017-12-17T03:52:53.981Z,99312.45
2017-12-17T03:55:22.262Z,99325.30
2017-12-17T03:57:50.503Z,99323.72
2017-12-17T04:00:18.795Z,99332.66
2017-12-17T04:02:47.075Z,99316.41
2017-12-17T04:05:15.351Z,99329.36
2017-12-17T04:07:44.261Z,99348.25
2017-12-17T04:10:12.534Z,99342.03
2017-12-17T04:12:40.788Z,99345.91
2017-12-17T04:15:09.067Z,99349.88
2017-12-17T04:17:37.323Z,99347.63
2017-12-17T04:20:05.602Z,99352.30
2017-12-17T04:22:33.862Z,99354.38
2017-12-17T04:25:02.139Z,99357.45
2017-12-17T04:27:30.427Z,99360.14
2017-12-17T04:29:58.691Z,99365.89
2017-12-17T04:32:27.055Z,99367.55
2017-12-17T04:34:55.315Z,99368.00
2017-12-17T04:37:23.588Z,99377.52
2017-12-17T04:39:51.849Z,99376.34
2017-12-17T04:42:20.136Z,99377.83
2017-12-17T04:44:48.393Z,99378.77
2017-12-17T04:47:16.631Z,99385.58
2017-12-17T04:49:44.907Z,99382.62
2017-12-17T04:52:13.220Z,99378.55
2017-12-17T04:54:41.455Z,99380.17
2017-12-17T04:57:09.768Z,99379.81
2017-12-17T04:59:38.041Z,99383.91
2017-12-17T05:02:06.315Z,99384.54
2017-12-17T05:04:34.607Z,99385.88
2017-12-17T05:07:02.877Z,99397.39
2017-12-17T05:09:31.203Z,99394.06
2017-12-17T05:12:00.483Z,99390.81
2017-12-17T05:14:28.740Z,99394.78
2017-12-17T05:16:57.011Z,99393.14
2017-12-17T05:19:25.274Z,99397.73
2017-12-17T05:21:53.551Z,99388.08
2017-12-17T05:24:21.807Z,99393.36
2017-12-17T05:26:50.096Z,99400.30
2017-12-17T05:29:18.376Z,99403.50
2017-12-17T05:31:46.634Z,99402.82
2017-12-17T05:34:14.863Z,99412.69
2017-12-17T05:36:43.153Z,99407.48
2017-12-17T05:39:11.400Z,99406.59
2017-12-17T05:41:39.683Z,99413.38
2017-12-17T05:44:07.969Z,99408.61
2017-12-17T05:46:36.219Z,99414.42
2017-12-17T05:49:04.483Z,99413.92
2017-12-17T05:51:32.734Z,99412.53
2017-12-17T05:54:01.035Z,99415.55
2017-12-17T05:56:29.287Z,99415.33
2017-12-17T05:58:57.563Z,99408.61
2017-12-17T06:01:25.828Z,99414.64
2017-12-17T06:03:54.084Z,99414.42
2017-12-17T06:06:22.360Z,99416.55
2017-12-17T06:08:50.590Z,99415.23
2017-12-17T06:11:18.867Z,99413.30
2017-12-17T06:13:47.119Z,99416.45
2017-12-17T06:16:15.383Z,99416.23
2017-12-17T06:18:43.631Z,99419.30
2017-12-17T06:21:11.909Z,99421.96
2017-12-17T06:23:40.150Z,99421.67
2017-12-17T06:26:08.435Z,99433.05
2017-12-17T06:28:36.695Z,99431.16
2017-12-17T06:31:05.246Z,99435.50
2017-12-17T06:33:33.502Z,99441.62
2017-12-17T06:36:01.772Z,99453.59
2017-12-17T06:38:30.039Z,99464.66
2017-12-17T06:40:58.327Z,99468.88
2017-12-17T06:43:26.603Z,99478.78
2017-12-17T06:45:54.865Z,99485.42
2017-12-17T06:48:23.214Z,99489.84
2017-12-17T06:50:51.471Z,99480.40
2017-12-17T06:53:19.747Z,99492.06
2017-12-17T06:55:48.019Z,99493.67
2017-12-17T06:58:16.503Z,99498.09
2017-12-17T07:00:44.757Z,99502.52
2017-12-17T07:03:13.007Z,99504.50
2017-12-17T07:05:41.283Z,99507.92
2017-12-17T07:08:09.875Z,99507.42
2017-12-17T07:10:38.142Z,99504.70
2017-12-17T07:13:06.390Z,99508.52
2017-12-17T07:15:34.671Z,99500.11
2017-12-17T07:18:02.933Z,99511.75
2017-12-17T07:20:31.340Z,99522.30
2017-12-17T07:22:59.615Z,99522.41
2017-12-17T07:25:28.064Z,99520.50
2017-12-17T07:27:56.347Z,99522.48
2017-12-17T07:30:24.622Z,99532.02
2017-12-17T07:32:52.903Z,99536.94
2017-12-17T07:35:21.170Z,99548.11
2017-12-17T07:37:49.450Z,99546.50
2017-12-17T07:40:17.702Z,99560.87
2017-12-17T07:42:45.998Z,99563.07
2017-12-17T07:45:14.260Z,99566.59
2017-12-17T07:47:42.551Z,99566.57
2017-12-17T07:50:10.830Z,99566.48
2017-12-17T07:52:39.598Z,99574.21
2017-12-17T07:55:07.888Z,99577.42
2017-12-17T07:57:36.165Z,99578.03
2017-12-17T08:00:04.459Z,99580.65
2017-12-17T08:02:32.724Z,99585.66
2017-12-17T08:05:00.995Z,99578.33
2017-12-17T08:07:29.274Z,99577.13
2017-12-17T08:09:57.547Z,99589.40
2017-12-17T08:12:25.841Z,99594.30
2017-12-17T08:14:54.115Z,99593.11
2017-12-17T08:17:22.392Z,99597.31
2017-12-17T08:19:50.650Z,99597.72
2017-12-17T08:22:18.935Z,99602.25
2017-12-17T08:24:47.183Z,99613.60
2017-12-17T08:27:15.495Z,99617.12
2017-12-17T08:29:43.748Z,99621.83
2017-12-17T08:32:12.094Z,99624.66
2017-12-17T08:34:40.504Z,99634.11
2017-12-17T08:37:08.755Z,99630.58
2017-12-17T08:39:37.020Z,99630.78
2017-12-17T08:42:05.411Z,99635.49
2017-12-17T08:44:33.679Z,99623.65
2017-12-17T08:47:01.915Z,99633.61
2017-12-17T08:49:30.201Z,99639.62
2017-12-17T08:51:58.462Z,99640.20
2017-12-17T08:54:26.755Z,99642.63
2017-12-17T08:56:55.011Z,99642.44
2017-12-17T08:59:23.298Z,99643.63
2017-12-17T09:01:51.584Z,99645.84
2017-12-17T09:04:19.871Z,99645.13
2017-12-17T09:06:48.171Z,99646.95
2017-12-17T09:09:16.456Z,99651.55
2017-12-17T09:11:44.757Z,99652.58
2017-12-17T09:14:13.034Z,99659.91
2017-12-17T09:16:41.290Z,99666.74
2017-12-17T09:19:09.551Z,99670.17
2017-12-17T09:21:37.837Z,99673.98
2017-12-17T09:24:06.101Z,99677.92
2017-12-17T09:26:34.399Z,99681.14
2017-12-17T09:29:02.652Z,99693.59
2017-12-17T09:31:31.216Z,99696.41
2017-12-17T09:33:59.479Z,99693.70
2017-12-17T09:36:27.775Z,99704.55
2017-12-17T09:38:56.078Z,99702.66
2017-12-17T09:41:24.351Z,99700.04
2017-12-17T09:43:52.638Z,99713.50
2017-12-17T09:46:20.914Z,99714.33
2017-12-17T09:48:49.175Z,99723.16
2017-12-17T09:51:17.464Z,99716.83
2017-12-17T09:53:45.744Z,99718.14
2017-12-17T09:56:14.002Z,99716.34
2017-12-17T09:58:42.291Z,99712.91
2017-12-17T10:01:10.547Z,99720.23
2017-12-17T10:03:38.825Z,99702.41
2017-12-17T10:06:07.087Z,99716.32
2017-12-17T10:08:35.385Z,99714.09
2017-12-17T10:11:03.711Z,99718.03
2017-12-17T10:13:31.944Z,99718.02
2017-12-17T10:16:00.237Z,99717.63
2017-12-17T10:18:28.501Z,99721.45
2017-12-17T10:20:56.759Z,99722.05
2017-12-17T10:23:25.047Z,99721.36
2017-12-17T10:25:53.315Z,99724.88
2017-12-17T10:28:21.605Z,99726.37
2017-12-17T10:30:49.860Z,99723.48
2017-12-17T10:33:18.126Z,99727.59
2017-12-17T10:35:46.422Z,99720.33
2017-12-17T10:38:14.679Z,99726.39
2017-12-17T10:40:42.968Z,99731.31
2017-12-17T10:43:11.231Z,99727.17
2017-12-17T10:45:39.547Z,99728.48
2017-12-17T10:48:07.802Z,99721.77
2017-12-17T10:50:36.100Z,99719.03
2017-12-17T10:53:04.803Z,99718.02
2017-12-17T10:55:33.059Z,99718.94
2017-12-17T10:58:01.347Z,99717.33
2017-12-17T11:00:29.608Z,99715.81
2017-12-17T11:02:57.919Z,99705.89
2017-12-17T11:05:26.200Z,99715.72
2017-12-17T11:07:54.483Z,99702.14
2017-12-17T11:10:22.733Z,99710.41
2017-12-17T11:12:51.027Z,99720.16
2017-12-17T11:15:19.282Z,99715.71
2017-12-17T11:17:47.563Z,99717.44
2017-12-17T11:20:15.818Z,99709.27
2017-12-17T11:22:44.114Z,99716.02
2017-12-17T11:25:12.394Z,99713.63
2017-12-17T11:27:40.652Z,99715.01
2017-12-17T11:30:09.014Z,99709.29
2017-12-17T11:32:37.393Z,99711.91
2017-12-17T11:35:05.816Z,99715.33
2017-12-17T11:37:34.028Z,99715.53
2017-12-17T11:40:02.287Z,99712.91
2017-12-17T11:42:30.567Z,99721.84
2017-12-17T11:44:58.876Z,99713.39
2017-12-17T11:47:27.119Z,99704.16
2017-12-17T11:49:55.418Z,99719.81
2017-12-17T11:52:23.774Z,99713.89
2017-12-17T11:54:52.187Z,99723.14
2017-12-17T11:57:20.471Z,99722.16
2017-12-17T11:59:48.732Z,99723.55
2017-12-17T12:02:17.015Z,99719.52
2017-12-17T12:04:45.271Z,99721.54
2017-12-17T12:07:13.590Z,99719.33
2017-12-17T12:09:41.859Z,99724.95
2017-12-17T12:12:10.155Z,99724.55
2017-12-17T12:14:38.848Z,99722.52
2017-12-17T12:17:07.105Z,99723.33
2017-12-17T12:19:35.457Z,99712.38
2017-12-17T12:22:04.619Z,99710.47
2017-12-17T12:24:32.913Z,99718.91
2017-12-17T12:27:01.158Z,99713.25
2017-12-17T12:29:29.447Z,99718.77
2017-12-17T12:31:57.754Z,99723.05
2017-12-17T12:34:26.004Z,99721.94
2017-12-17T12:36:54.280Z,99715.27
2017-12-17T12:39:22.574Z,99712.48
2017-12-17T12:41:50.850Z,99695.66
2017-12-17T12:44:19.095Z,99713.58
2017-12-17T12:46:47.372Z,99716.40
2017-12-17T12:49:15.668Z,99711.16
2017-12-17T12:51:43.962Z,99720.52
2017-12-17T12:54:12.208Z,99709.45
2017-12-17T12:56:40.490Z,99714.56
2017-12-17T12:59:08.748Z,99715.09
2017-12-17T13:01:37.030Z,99708.15
2017-12-17T13:04:05.594Z,99709.02
2017-12-17T13:06:33.874Z,99713.77
2017-12-17T13:09:02.173Z,99726.33
2017-12-17T13:11:30.452Z,99712.78
2017-12-17T13:13:58.728Z,99713.25
2017-12-17T13:16:26.978Z,99721.25
2017-12-17T13:18:55.286Z,99722.16
2017-12-17T13:21:23.534Z,99725.77
2017-12-17T13:23:51.811Z,99706.36
2017-12-17T13:26:20.123Z,99721.66
2017-12-17T13:28:48.419Z,99725.98
2017-12-17T13:31:16.683Z,99728.71
2017-12-17T13:33:44.965Z,99727.78
2017-12-17T13:36:13.272Z,99724.28
2017-12-17T13:38:41.560Z,99728.09
2017-12-17T13:41:09.825Z,99730.02
2017-12-17T13:43:38.106Z,99730.81
2017-12-17T13:46:06.364Z,99735.25
2017-12-17T13:48:34.718Z,99721.88
2017-12-17T13:51:04.034Z,99731.21
2017-12-17T13:53:32.299Z,99731.40
2017-12-17T13:56:00.591Z,99733.23
2017-12-17T13:58:28.855Z,99739.66
2017-12-17T14:00:57.143Z,99709.88
2017-12-17T14:03:25.816Z,99707.23
2017-12-17T14:05:54.090Z,99714.89
2017-12-17T14:08:22.387Z,99733.38
2017-12-17T14:10:50.677Z,99738.04
2017-12-17T14:13:19.012Z,99740.85
2017-12-17T14:15:47.243Z,99755.11
2017-12-17T14:18:15.532Z,99757.64
2017-12-17T14:20:43.787Z,99763.09
2017-12-17T14:23:12.060Z,99752.03
2017-12-17T14:25:40.311Z,99767.40
2017-12-17T14:28:08.605Z,99774.66
2017-12-17T14:30:36.882Z,99768.52
2017-12-17T14:33:05.175Z,99766.02
2017-12-17T14:35:33.438Z,99773.23
2017-12-17T14:38:01.717Z,99764.00
2017-12-17T14:40:30.015Z,99774.46
2017-12-17T14:42:58.318Z,99773.34
2017-12-17T14:45:26.571Z,99778.28
2017-12-17T14:47:55.713Z,99792.17
2017-12-17T14:50:24.020Z,99787.84
2017-12-17T14:52:52.285Z,99796.98
2017-12-17T14:55:20.549Z,99793.67
2017-12-17T14:57:49.081Z,99803.23
2017-12-17T15:00:17.349Z,99802.12
2017-12-17T15:02:45.603Z,99807.66
2017-12-17T15:05:13.883Z,99813.40
2017-12-17T15:07:42.168Z,99813.59
2017-12-17T15:10:10.485Z,99817.63
2017-12-17T15:12:38.742Z,99818.93
2017-12-17T15:15:07.063Z,99827.40
2017-12-17T15:17:35.346Z,99814.39
2017-12-17T15:20:03.795Z,99833.11
2017-12-17T15:22:34.994Z,99835.02
2017-12-17T15:25:03.299Z,99829.28
2017-12-17T15:27:31.598Z,99826.86
2017-12-17T15:29:59.845Z,99824.67
2017-12-17T15:32:28.129Z,99831.80
2017-12-17T15:34:56.383Z,99829.77
2017-12-17T15:37:24.677Z,99843.55
2017-12-17T15:39:53.878Z,99846.03
2017-12-17T15:42:22.155Z,99850.45
2017-12-17T15:44:50.442Z,99851.17
2017-12-17T15:47:18.754Z,99836.66
2017-12-17T15:49:47.051Z,99858.11
2017-12-17T15:52:15.321Z,99834.14
2017-12-17T15:54:43.602Z,99854.20
2017-12-17T15:57:11.876Z,99852.36
2017-12-17T15:59:40.168Z,99860.20
2017-12-17T16:02:08.426Z,99869.73
2017-12-17T16:04:36.832Z,99869.85
2017-12-17T16:07:05.084Z,99870.55
2017-12-17T16:09:33.368Z,99870.44
2017-12-17T16:12:01.638Z,99862.01
2017-12-17T16:14:29.948Z,99875.00
2017-12-17T16:16:58.232Z,99874.22
2017-12-17T16:19:26.543Z,99872.06
2017-12-17T16:21:54.844Z,99881.05
2017-12-17T16:24:23.195Z,99883.37
2017-12-17T16:26:51.484Z,99876.43
2017-12-17T16:29:19.770Z,99887.59
2017-12-17T16:31:48.055Z,99873.33
2017-12-17T16:34:16.323Z,99890.53
2017-12-17T16:36:45.524Z,99888.22
2017-12-17T16:39:13.998Z,99885.61
2017-12-17T16:41:42.280Z,99890.17
2017-12-17T16:44:10.555Z,99891.86
2017-12-17T16:46:38.839Z,99881.37
2017-12-17T16:49:07.109Z,99896.05
2017-12-17T16:51:35.646Z,99891.78
2017-12-17T16:54:03.929Z,99884.80
2017-12-17T16:56:32.175Z,99898.64
2017-12-17T16:59:00.463Z,99886.16
2017-12-17T17:01:28.708Z,99894.20
2017-12-17T17:03:57.005Z,99881.66
2017-12-17T17:06:25.272Z,99888.74
2017-12-17T17:08:53.551Z,99890.33
2017-12-17T17:11:21.821Z,99872.16
2017-12-17T17:13:50.075Z,99891.39
2017-12-17T17:16:18.327Z,99881.86
2017-12-17T17:18:46.613Z,99884.59
2017-12-17T17:21:14.868Z,99876.14
2017-12-17T17:23:43.137Z,99892.41
2017-12-17T17:26:11.420Z,99891.87
2017-12-17T17:28:39.691Z,99888.84
2017-12-17T17:31:07.971Z,99884.23
2017-12-17T17:33:36.212Z,99884.55
2017-12-17T17:36:04.534Z,99883.05
2017-12-17T17:38:32.808Z,99882.28
2017-12-17T17:41:01.903Z,99865.57
2017-12-17T17:43:30.224Z,99890.77
2017-12-17T17:45:58.486Z,99892.70
2017-12-17T17:48:26.741Z,99886.87
2017-12-17T17:50:55.031Z,99889.89
2017-12-17T17:53:23.300Z,99884.05
2017-12-17T17:55:51.603Z,99893.70
2017-12-17T17:58:19.879Z,99895.63
2017-12-17T18:00:48.166Z,99891.61
2017-12-17T18:03:16.524Z,99887.97
2017-12-17T18:05:44.807Z,99885.88
2017-12-17T18:08:13.113Z,99893.83
2017-12-17T18:10:41.347Z,99902.41
2017-12-17T18:13:09.655Z,99880.56
2017-12-17T18:15:37.915Z,99881.66
2017-12-17T18:18:06.228Z,99871.48
2017-12-17T18:20:34.475Z,99878.20
2017-12-17T18:23:02.766Z,99883.78
2017-12-17T18:25:31.064Z,99888.83
2017-12-17T18:27:59.348Z,99895.97
2017-12-17T18:30:27.629Z,99884.55
2017-12-17T18:32:55.870Z,99890.98
2017-12-17T18:35:24.170Z,99885.06
2017-12-17T18:37:52.433Z,99893.73
2017-12-17T18:40:20.701Z,99902.87
2017-12-17T18:42:48.994Z,99904.08
2017-12-17T18:45:17.282Z,99907.13
2017-12-17T18:47:45.502Z,99899.98
2017-12-17T18:50:13.776Z,99898.34
2017-12-17T18:52:42.053Z,99902.77
2017-12-17T18:55:10.328Z,99884.88
2017-12-17T18:57:38.608Z,99897.53
2017-12-17T19:00:06.854Z,99893.20
2017-12-17T19:02:35.176Z,99902.47
2017-12-17T19:05:03.420Z,99900.34
2017-12-17T19:07:31.702Z,99896.44
2017-12-17T19:09:59.977Z,99899.85
2017-12-17T19:12:28.931Z,99896.63
2017-12-17T19:14:58.019Z,99895.22
2017-12-17T19:17:26.291Z,99901.48
2017-12-17T19:19:54.548Z,99905.00
2017-12-17T19:22:22.898Z,99901.16
2017-12-17T19:24:51.216Z,99896.97
2017-12-17T19:27:19.467Z,99893.63
2017-12-17T19:29:47.754Z,99895.94
2017-12-17T19:32:16.105Z,99901.66
2017-12-17T19:34:44.368Z,99899.58
2017-12-17T19:37:12.620Z,99881.86
2017-12-17T19:39:40.941Z,99888.48
2017-12-17T19:42:09.237Z,99886.36
2017-12-17T19:44:37.508Z,99878.01
2017-12-17T19:47:05.763Z,99882.04
2017-12-17T19:49:34.056Z,99883.25
2017-12-17T19:52:02.334Z,99887.17
2017-12-17T19:54:30.793Z,99888.31
2017-12-17T19:56:59.194Z,99884.46
2017-12-17T19:59:27.667Z,99891.59
2017-12-17T20:01:56.205Z,99891.79
2017-12-17T20:04:25.547Z,99898.34
2017-12-17T20:06:54.093Z,99900.66
2017-12-17T20:09:22.678Z,99902.20
2017-12-17T20:11:51.228Z,99896.73
2017-12-17T20:14:19.729Z,99901.78
2017-12-17T20:16:48.262Z,99892.11
2017-12-17T20:19:16.820Z,99894.63
2017-12-17T20:21:45.362Z,99894.84
2017-12-17T20:24:13.910Z,99878.82
2017-12-17T20:26:42.520Z,99887.52
2017-12-17T20:29:13.705Z,99902.59
2017-12-17T20:31:39.716Z,99903.20
2017-12-17T20:34:08.280Z,99900.75
2017-12-17T20:36:36.861Z,99899.64
2017-12-17T20:39:05.399Z,99902.98
2017-12-17T20:41:33.916Z,99902.47
2017-12-17T20:44:02.492Z,99897.04
2017-12-17T20:46:31.012Z,99893.61
2017-12-17T20:48:59.275Z,99892.80
2017-12-17T20:51:27.585Z,99892.11
2017-12-17T20:53:55.851Z,99887.97
2017-12-17T20:56:24.161Z,99889.09
2017-12-17T20:58:52.417Z,99871.78
2017-12-17T21:01:20.720Z,99877.62
2017-12-17T21:03:48.997Z,99873.89
2017-12-17T21:06:17.296Z,99876.81
2017-12-17T21:08:45.539Z,99872.58
2017-12-17T21:11:13.851Z,99868.64
2017-12-17T21:13:42.150Z,99876.09
2017-12-17T21:16:10.458Z,99871.16
2017-12-17T21:18:38.733Z,99854.45
2017-12-17T21:21:07.011Z,99876.31
2017-12-17T21:23:35.296Z,99862.51
2017-12-17T21:26:03.565Z,99861.91
2017-12-17T21:28:31.851Z,99867.64
2017-12-17T21:31:00.117Z,99865.92
2017-12-17T21:33:28.419Z,99865.84
2017-12-17T21:35:56.673Z,99855.07
2017-12-17T21:38:24.959Z,99839.16
2017-12-17T21:40:53.269Z,99850.13
2017-12-17T21:43:21.515Z,99848.94
2017-12-17T21:45:49.771Z,99852.73
2017-12-17T21:48:18.058Z,99854.56
2017-12-17T21:50:46.335Z,99843.78
2017-12-17T21:53:14.621Z,99852.36
2017-12-17T21:55:42.881Z,99859.70
2017-12-17T21:58:11.169Z,99858.59
2017-12-17T22:00:39.440Z,99851.13
2017-12-17T22:03:07.891Z,99838.55
2017-12-17T22:05:36.182Z,99838.36
2017-12-17T22:08:05.120Z,99828.59
2017-12-17T22:10:33.432Z,99833.62
2017-12-17T22:13:01.701Z,99830.80
2017-12-17T22:15:30.027Z,99831.80
2017-12-17T22:17:58.281Z,99833.00
2017-12-17T22:20:26.576Z,99831.31
2017-12-17T22:22:54.845Z,99828.38
2017-12-17T22:25:23.156Z,99826.08
2017-12-17T22:27:51.464Z,99827.58
2017-12-17T22:30:19.752Z,99832.42
2017-12-17T22:32:48.048Z,99824.45
2017-12-17T22:35:16.548Z,99815.19
2017-12-17T22:37:44.804Z,99814.19
2017-12-17T22:40:13.073Z,99813.67
2017-12-17T22:42:41.348Z,99806.44
2017-12-17T22:45:09.608Z,99797.48
2017-12-17T22:47:37.909Z,99807.66
2017-12-17T22:50:06.176Z,99800.81
2017-12-17T22:52:34.460Z,99795.09
2017-12-17T22:55:02.711Z,99795.38
2017-12-17T22:57:31.109Z,99779.47
2017-12-17T22:59:59.328Z,99777.89
2017-12-17T23:02:27.607Z,99773.26
2017-12-17T23:04:55.891Z,99777.86
2017-12-17T23:07:24.179Z,99772.84
2017-12-17T23:09:52.450Z,99773.66
2017-12-17T23:12:20.746Z,99767.23
2017-12-17T23:14:49.046Z,99762.80
2017-12-17T23:17:17.317Z,99764.51
2017-12-17T23:19:45.598Z,99760.69
2017-12-17T23:22:13.875Z,99756.45
2017-12-17T23:24:42.151Z,99760.39
2017-12-17T23:27:10.412Z,99746.48
2017-12-17T23:29:38.687Z,99747.72
2017-12-17T23:32:06.948Z,99754.94
2017-12-17T23:34:35.244Z,99742.07
2017-12-17T23:37:03.525Z,99736.02
2017-12-17T23:39:31.780Z,99731.61
2017-12-17T23:42:00.352Z,99717.22
2017-12-17T23:44:28.615Z,99718.23
2017-12-17T23:46:56.902Z,99712.60
2017-12-17T23:49:25.228Z,99708.87
2017-12-17T23:51:53.487Z,99702.86
2017-12-17T23:54:21.948Z,99705.95
2017-12-17T23:56:50.208Z,99690.38
2017-12-17T23:59:18.557Z,99691.10
